Monday, January 26, 2015
00:20 UTC
  |  Log In   |  Register Free
Airport Search:

Pike County-Hatcher Field Airport
(KPBX)

Pike County-Hatcher Field Airport Diagram
No Airport Diagram Available

FAA data valid effective January 08, 2015 - March 05, 2015 (unless otherwise noted).

 
 
 
 
 
 
 
 
 
 
 
 
 
 

Current Aviation Weather for Pike County-Hatcher Field Airport (KPBX)

The most recent METAR observation for KPBX was updated at: 0014
METAR Summary (Translated METAR)
KPBX
252355Z AUTO 20006KT 10SM RA BKN043 OVC048 07/01 A2971 RMK AO2 T00700011 10095 20067
KSJS
252355Z AUTO 23005KT 10SM DZ SCT040 BKN048 OVC060 08/01 A2971 RMK AO2 T00830012 10100 20077
(11.8 nm NW from KPBX)
KLNP
252355Z AUTO 21004KT 10SM OVC080 06/M01 A2971 RMK AO2
(34.5 nm SE from KPBX)
TAF Summary (Translated TAF)
KSJS
(46.1 nm NW from KLNP)
251734Z 2518/2618 18008KT P6SM OVC100 FM260100 18009KT 6SM -RA BKN030 OVC100 FM260700 20009KT 3SM RA OVC010 FM261100 30009G18KT 2SM -SHSN OVC004
  Airport Weather Conditions for KPBX

Current weather conditions are
not available for PBX


The nearest NOAA weather station
is at SJS, (11.8 nm NW from PBX)
  
 Current Weather at SJS
47° F
Drizzle
Southwest winds at 5.8 mph
SJS NOAA Radar

Pressure: 29.71 in
Humidity: 61%
Wind: Southwest at 5.8 MPH (5 KT)
Dew Point: 34.2°F
Visibility: 10.00 mi


Airport Weather Forecast for KPBX

Translated METAR and TAF for KLNP
Translated METAR for KLNP (0021 UTC 26 January 2015)
found at http://aviationweather.gov/adds/metars/
 
METAR text: KLNP 252355Z AUTO 21004KT 10SM OVC080 06/M01 A2971 RMK AO2
Conditions at: KLNP (WISE/LONESOME PI, VA, US) observed 2355 UTC 25 January 2015
Temperature: 6.0°C (43°F)
Dewpoint: -1.0°C (30°F) [RH = 61%]
Pressure (altimeter): 29.71 inches Hg (1006.2 mb)
Winds: from the SSW (210 degrees) at 5 MPH (4 knots; 2.1 m/s)
Visibility: 10 or more miles (16+ km)
Ceiling: 8000 feet AGL
Clouds: overcast cloud deck at 8000 feet AGL
Weather: automated observation with no human augmentation;
there may or may not be significant weather present at this time
Translated TAF for KLNP

There is no translated TAF available for this airport

Find All Airport Services Find A Hotel Find A Rental Car Find A Golf Course Find A Restaurant $100 Hamburger



FBO's on the Field
FBO Company Facility Photos Services Transportation Aviation Fuel Prices: Prices include tax
Catering Weather Repair Courtesy Rental Type 100LL JetA JetA+ MOGAS 8087
 
Pikeville-Pike Airport

This FBO has not yet been rated
FS:Shell
Last Updated: Jan-05
Login to update fuel prices
SS:
Contact Pikeville-Pike AirportMore FBO Information
 
Add another FBO Facility Photos Catering Weather Repair Courtesy Rental Type 100LL JetA JetA+ MOGAS 8087
Services Transportation Aviation Fuel Prices: Prices include tax


model-print
model-print
model-print
model-print